Time;durP1;ratioP1;P1;durP2;ratioP2;P2;SDS_P1;SDS_P2;PMS_P1;PMS_P2;Temp;Humidity;BMP_temperature;BMP_pressure;BME280_temperature;BME280_humidity;BME280_pressure;Samples;Min_cycle;Max_cycle;Signal;HPM_P1;HPM_P2
2023/06/21 00:00:14;;;;;;;;;;;24.30;95.20;24.20;99489.00;;;;342172;28;90697;-90
2023/06/21 00:00:27;;;;;;;;;;;24.30;95.20;24.30;99484.00;;;;345371;28;83444;-91
2023/06/21 00:00:39;;;;;;;;;;;24.30;95.20;24.30;99495.00;;;;337981;28;91543;-91
2023/06/21 00:00:51;;;;;;;;;;;24.30;95.20;24.30;99490.00;;;;336887;28;82515;-90
2023/06/21 00:01:04;;;;;;;;;;;24.30;95.20;24.20;99489.00;;;;337798;28;90778;-91
2023/06/21 00:01:16;;;;;;;;;;;24.30;95.30;24.30;99491.00;;;;340856;28;82556;-91
2023/06/21 00:01:31;;;;;;;;;;;24.30;95.20;24.30;99484.00;;;;338934;28;91564;-92
2023/06/21 00:01:43;;;;;;;;;;;24.30;95.20;24.30;99477.00;;;;342162;28;83306;-90
2023/06/21 00:01:55;;;;;;;;;;;24.30;95.30;24.30;99490.00;;;;339069;28;90323;-90
2023/06/21 00:02:07;;;;;;;;;;;24.30;95.20;24.30;99483.00;;;;338115;28;83363;-90
2023/06/21 00:02:19;;;;;;;;;;;24.30;95.20;24.20;99491.00;;;;338855;28;90315;-90
2023/06/21 00:02:31;;;;;;;;;;;24.30;95.20;24.30;99490.00;;;;342210;28;83428;-90
2023/06/21 00:02:43;;;;;;;;;;;24.30;95.20;24.20;99488.00;;;;347356;28;92410;-91
2023/06/21 00:02:55;;;;;;;;;;;24.30;95.30;24.20;99483.00;;;;345000;28;83397;-90
2023/06/21 00:03:07;;;;;;;;;;;24.30;95.20;24.30;99488.00;;;;340360;28;92375;-90
2023/06/21 00:03:21;;;;;;;;;;;24.30;95.20;24.30;99478.00;;;;340622;28;83563;-90
2023/06/21 00:03:33;;;;;;;;;;;24.30;95.20;24.30;99480.00;;;;341255;28;91477;-90
2023/06/21 00:03:45;;;;;;;;;;;24.30;95.20;24.30;99484.00;;;;340398;28;83297;-90
2023/06/21 00:04:00;;;;;;;;;;;24.30;95.20;24.30;99478.00;;;;337343;28;90426;-91
2023/06/21 00:04:12;;;;;;;;;;;24.30;95.20;24.20;99482.00;;;;339148;28;82339;-91
2023/06/21 00:04:24;;;;;;;;;;;24.30;95.30;24.20;99481.00;;;;336042;28;92038;-91
2023/06/21 00:04:36;;;;;;;;;;;24.30;95.30;24.30;99477.00;;;;344718;28;83404;-90
2023/06/21 00:04:49;;;;;;;;;;;24.30;95.40;24.20;99490.00;;;;344181;28;92687;-91
2023/06/21 00:05:00;;;;;;;;;;;24.30;95.40;24.30;99488.00;;;;344643;28;83480;-91
2023/06/21 00:05:12;;;;;;;;;;;24.30;95.30;24.30;99481.00;;;;337415;28;90522;-90
2023/06/21 00:05:24;;;;;;;;;;;24.30;95.40;24.20;99483.00;;;;339093;28;82543;-90
2023/06/21 00:05:38;;;;;;;;;;;24.30;95.40;24.20;99486.00;;;;339875;28;90368;-91
2023/06/21 00:05:50;;;;;;;;;;;24.30;95.40;24.20;99481.00;;;;337720;28;83583;-90
2023/06/21 00:06:01;;;;;;;;;;;24.30;95.40;24.20;99472.00;;;;338842;28;88666;-91
2023/06/21 00:06:13;;;;;;;;;;;24.30;95.40;24.30;99482.00;;;;340481;28;83351;-91
2023/06/21 00:06:28;;;;;;;;;;;24.30;95.40;24.20;99483.00;;;;340052;28;89069;-90
2023/06/21 00:06:40;;;;;;;;;;;24.20;95.30;24.20;99480.00;;;;339076;28;83186;-91
2023/06/21 00:06:53;;;;;;;;;;;24.20;95.30;24.20;99479.00;;;;338387;28;91481;-91
2023/06/21 00:07:07;;;;;;;;;;;24.20;95.30;24.20;99470.00;;;;340497;28;82573;-90
2023/06/21 00:07:23;;;;;;;;;;;24.20;95.30;24.20;99475.00;;;;338688;28;91529;-91
2023/06/21 00:07:35;;;;;;;;;;;24.20;95.30;24.20;99475.00;;;;336533;28;83362;-90
2023/06/21 00:07:48;;;;;;;;;;;24.30;95.30;24.20;99473.00;;;;338740;28;90603;-90
2023/06/21 00:07:59;;;;;;;;;;;24.20;95.30;24.30;99468.00;;;;346061;28;82526;-91
2023/06/21 00:08:12;;;;;;;;;;;24.20;95.30;24.20;99468.00;;;;345636;28;91420;-91
2023/06/21 00:08:23;;;;;;;;;;;24.20;95.40;24.20;99471.00;;;;346098;28;83549;-90
2023/06/21 00:08:35;;;;;;;;;;;24.30;95.40;24.20;99470.00;;;;344279;28;91720;-91
2023/06/21 00:08:47;;;;;;;;;;;24.30;95.40;24.20;99469.00;;;;337788;28;83379;-90
2023/06/21 00:08:59;;;;;;;;;;;24.30;95.40;24.20;99471.00;;;;341290;28;92269;-90
2023/06/21 00:09:12;;;;;;;;;;;24.30;95.40;24.30;99468.00;;;;339108;28;83439;-91
2023/06/21 00:09:24;;;;;;;;;;;24.30;95.40;24.30;99472.00;;;;337301;28;90553;-91
2023/06/21 00:09:36;;;;;;;;;;;24.30;95.60;24.30;99463.00;;;;337850;28;83397;-90
2023/06/21 00:09:47;;;;;;;;;;;24.30;95.40;24.40;99463.00;;;;337402;28;90344;-91
2023/06/21 00:09:59;;;;;;;;;;;24.30;95.30;24.40;99471.00;;;;339078;28;83352;-91
2023/06/21 00:10:11;;;;;;;;;;;24.30;95.30;24.30;99472.00;;;;338522;28;91099;-90
2023/06/21 00:10:24;;;;;;;;;;;24.30;95.40;24.30;99468.00;;;;337711;28;83925;-91
2023/06/21 00:10:36;;;;;;;;;;;24.30;95.40;24.20;99469.00;;;;337425;28;91595;-91
2023/06/21 00:10:48;;;;;;;;;;;24.30;95.30;24.20;99471.00;;;;337741;28;83412;-91
2023/06/21 00:11:00;;;;;;;;;;;24.30;95.30;24.30;99468.00;;;;337182;28;92425;-91
2023/06/21 00:11:12;;;;;;;;;;;24.30;95.30;24.20;99473.00;;;;339186;28;82485;-91
2023/06/21 00:11:24;;;;;;;;;;;24.30;95.40;24.30;99471.00;;;;338649;28;90469;-91
2023/06/21 00:11:36;;;;;;;;;;;24.20;95.30;24.40;99469.00;;;;339082;28;83538;-91
2023/06/21 00:11:47;;;;;;;;;;;24.30;95.30;24.30;99470.00;;;;337379;28;91333;-90
2023/06/21 00:11:59;;;;;;;;;;;24.30;95.40;24.30;99467.00;;;;337735;28;82439;-90
2023/06/21 00:12:11;;;;;;;;;;;24.30;95.40;24.20;99470.00;;;;340105;28;90414;-90
2023/06/21 00:12:25;;;;;;;;;;;24.30;95.40;24.20;99473.00;;;;340359;28;83920;-91
2023/06/21 00:12:37;;;;;;;;;;;24.30;95.50;24.30;99468.00;;;;338721;28;91680;-91
2023/06/21 00:12:49;;;;;;;;;;;24.30;95.40;24.30;99473.00;;;;339153;28;83318;-90
2023/06/21 00:13:01;;;;;;;;;;;24.30;95.50;24.30;99469.00;;;;338513;28;92798;-90
2023/06/21 00:13:13;;;;;;;;;;;24.30;95.50;24.20;99468.00;;;;337743;28;83350;-90
2023/06/21 00:13:25;;;;;;;;;;;24.30;95.50;24.10;99472.00;;;;337310;28;91570;-90
2023/06/21 00:13:37;;;;;;;;;;;24.30;95.50;24.20;99477.00;;;;339049;28;83311;-90
2023/06/21 00:13:52;;;;;;;;;;;24.20;95.50;24.30;99471.00;;;;337332;28;90466;-91
2023/06/21 00:14:04;;;;;;;;;;;24.20;95.50;24.30;99474.00;;;;339100;28;82604;-90
2023/06/21 00:14:16;;;;;;;;;;;24.30;95.50;24.30;99471.00;;;;339955;28;90771;-90
2023/06/21 00:14:27;;;;;;;;;;;24.30;95.50;24.30;99477.00;;;;336343;28;83603;-90
2023/06/21 00:14:39;;;;;;;;;;;24.20;95.50;24.30;99482.00;;;;337401;28;90726;-90
2023/06/21 00:14:51;;;;;;;;;;;24.30;95.60;24.30;99474.00;;;;339148;28;83235;-91
2023/06/21 00:15:04;;;;;;;;;;;24.30;95.60;24.30;99471.00;;;;335963;28;93030;-90
2023/06/21 00:15:16;;;;;;;;;;;24.30;95.50;24.30;99468.00;;;;339075;28;83425;-90
2023/06/21 00:15:28;;;;;;;;;;;24.30;95.50;24.40;99472.00;;;;337366;28;89854;-91
2023/06/21 00:15:39;;;;;;;;;;;24.30;95.50;24.30;99479.00;;;;337811;28;83376;-90
2023/06/21 00:15:54;;;;;;;;;;;24.30;95.50;24.30;99471.00;;;;337404;28;91219;-91
2023/06/21 00:16:05;;;;;;;;;;;24.30;95.50;24.30;99474.00;;;;339130;28;83481;-90
2023/06/21 00:16:17;;;;;;;;;;;24.30;95.50;24.30;99480.00;;;;338608;28;91489;-91
2023/06/21 00:16:30;;;;;;;;;;;24.30;95.50;24.20;99473.00;;;;339007;28;83464;-91
2023/06/21 00:16:44;;;;;;;;;;;24.20;95.60;24.30;99470.00;;;;338707;28;90332;-90
2023/06/21 00:16:55;;;;;;;;;;;24.30;95.60;24.30;99476.00;;;;344612;28;82510;-91
2023/06/21 00:17:07;;;;;;;;;;;24.30;95.60;24.40;99464.00;;;;345634;28;92398;-90
2023/06/21 00:17:19;;;;;;;;;;;24.30;95.60;24.30;99471.00;;;;341836;27;82729;-90
2023/06/21 00:17:31;;;;;;;;;;;24.30;95.60;24.20;99470.00;;;;337448;28;91742;-90
2023/06/21 00:17:43;;;;;;;;;;;24.30;95.70;24.30;99471.00;;;;338084;28;83975;-90
2023/06/21 00:17:55;;;;;;;;;;;24.30;95.70;24.30;99471.00;;;;337582;28;89783;-90
2023/06/21 00:18:07;;;;;;;;;;;24.30;95.70;24.30;99471.00;;;;340758;28;83408;-91
2023/06/21 00:18:19;;;;;;;;;;;24.30;95.70;24.40;99468.00;;;;340355;28;91010;-90
2023/06/21 00:18:31;;;;;;;;;;;24.30;95.70;24.40;99471.00;;;;340865;28;82569;-91
2023/06/21 00:18:43;;;;;;;;;;;24.30;95.70;24.30;99467.00;;;;337696;28;91546;-91
2023/06/21 00:18:55;;;;;;;;;;;24.30;95.70;24.20;99468.00;;;;339143;28;82485;-90
2023/06/21 00:19:07;;;;;;;;;;;24.30;95.70;24.30;99467.00;;;;341480;28;91509;-91
2023/06/21 00:19:19;;;;;;;;;;;24.30;95.70;24.30;99466.00;;;;339184;28;83383;-91
2023/06/21 00:19:31;;;;;;;;;;;24.30;95.70;24.40;99465.00;;;;337316;28;90337;-90
2023/06/21 00:19:43;;;;;;;;;;;24.30;95.80;24.30;99461.00;;;;337777;28;83468;-91
2023/06/21 00:19:55;;;;;;;;;;;24.30;95.80;24.30;99474.00;;;;337432;28;90267;-90
2023/06/21 00:20:09;;;;;;;;;;;24.30;95.80;24.30;99462.00;;;;337799;28;83443;-90
2023/06/21 00:20:21;;;;;;;;;;;24.30;95.70;24.20;99462.00;;;;339899;28;91714;-91
2023/06/21 00:20:32;;;;;;;;;;;24.30;95.80;24.20;99464.00;;;;343204;28;83548;-91
2023/06/21 00:20:46;;;;;;;;;;;24.30;95.80;24.30;99468.00;;;;347064;28;90520;-91
2023/06/21 00:20:59;;;;;;;;;;;24.30;95.80;24.10;99461.00;;;;350188;27;83449;-90
2023/06/21 00:21:13;;;;;;;;;;;24.30;95.90;24.10;99459.00;;;;345672;28;92452;-90
2023/06/21 00:21:25;;;;;;;;;;;24.20;95.80;24.10;99462.00;;;;344596;28;83484;-91
2023/06/21 00:21:38;;;;;;;;;;;24.20;95.80;24.00;99468.00;;;;348434;27;90496;-91
2023/06/21 00:21:51;;;;;;;;;;;24.20;96.00;24.10;99459.00;;;;346083;28;82516;-91
2023/06/21 00:22:02;;;;;;;;;;;24.20;95.90;24.10;99462.00;;;;344375;28;90981;-90
2023/06/21 00:22:20;;;;;;;;;;;24.20;95.90;24.10;99458.00;;;;349112;27;83318;-90
2023/06/21 00:22:33;;;;;;;;;;;24.20;96.00;24.10;99457.00;;;;346983;28;90810;-92
2023/06/21 00:22:45;;;;;;;;;;;24.20;95.90;24.10;99463.00;;;;346123;28;83546;-91
2023/06/21 00:22:57;;;;;;;;;;;24.20;95.90;24.00;99453.00;;;;347139;28;90928;-90
2023/06/21 00:23:11;;;;;;;;;;;24.20;96.00;24.00;99453.00;;;;344710;28;83525;-91
2023/06/21 00:23:23;;;;;;;;;;;24.10;96.00;24.10;99448.00;;;;347196;28;92881;-91
2023/06/21 00:23:35;;;;;;;;;;;24.20;96.00;24.10;99457.00;;;;346146;28;82401;-90
2023/06/21 00:23:47;;;;;;;;;;;24.20;96.00;24.10;99450.00;;;;347041;28;91396;-91
2023/06/21 00:24:02;;;;;;;;;;;24.20;96.00;24.10;99453.00;;;;347609;28;83278;-91
2023/06/21 00:24:15;;;;;;;;;;;24.20;96.00;24.00;99457.00;;;;349558;27;90500;-90
2023/06/21 00:24:27;;;;;;;;;;;24.10;96.10;23.90;99449.00;;;;346130;28;82533;-90
2023/06/21 00:24:39;;;;;;;;;;;24.10;96.10;24.00;99451.00;;;;344450;28;90646;-91
2023/06/21 00:24:51;;;;;;;;;;;24.10;96.10;24.10;99459.00;;;;346119;28;83382;-90
2023/06/21 00:25:03;;;;;;;;;;;24.10;96.10;24.10;99452.00;;;;344130;28;90335;-90
2023/06/21 00:25:15;;;;;;;;;;;24.10;96.20;24.10;99451.00;;;;347486;28;83371;-90
2023/06/21 00:25:27;;;;;;;;;;;24.10;96.10;24.10;99448.00;;;;345521;28;92500;-91
2023/06/21 00:25:39;;;;;;;;;;;24.10;96.20;24.10;99457.00;;;;346069;28;83448;-91
2023/06/21 00:25:51;;;;;;;;;;;24.10;96.30;24.10;99463.00;;;;345707;28;87831;-90
2023/06/21 00:26:02;;;;;;;;;;;24.10;96.20;24.20;99450.00;;;;347558;28;83359;-91
2023/06/21 00:26:14;;;;;;;;;;;24.10;96.10;24.20;99454.00;;;;347306;28;91500;-91
2023/06/21 00:26:26;;;;;;;;;;;24.10;96.20;24.20;99448.00;;;;347402;28;83540;-90
2023/06/21 00:26:38;;;;;;;;;;;24.10;96.10;24.20;99452.00;;;;345695;28;91473;-90
2023/06/21 00:26:50;;;;;;;;;;;24.10;96.20;24.20;99456.00;;;;344775;28;83414;-91
2023/06/21 00:27:02;;;;;;;;;;;24.10;96.20;24.20;99456.00;;;;345664;28;88441;-91
2023/06/21 00:27:14;;;;;;;;;;;24.10;96.20;24.20;99450.00;;;;347604;28;83465;-91
2023/06/21 00:27:26;;;;;;;;;;;24.10;96.20;24.20;99452.00;;;;346954;28;90912;-91
2023/06/21 00:27:39;;;;;;;;;;;24.10;96.20;24.20;99444.00;;;;346016;28;82672;-90
2023/06/21 00:27:50;;;;;;;;;;;24.10;96.10;24.20;99454.00;;;;344311;28;90782;-90
2023/06/21 00:28:02;;;;;;;;;;;24.10;96.10;24.30;99448.00;;;;346057;28;83400;-90
2023/06/21 00:28:15;;;;;;;;;;;24.20;96.20;24.30;99450.00;;;;348426;27;91519;-91
2023/06/21 00:28:27;;;;;;;;;;;24.20;96.20;24.30;99445.00;;;;347684;28;82447;-91
2023/06/21 00:28:39;;;;;;;;;;;24.10;96.20;24.30;99445.00;;;;346962;28;91346;-91
2023/06/21 00:28:51;;;;;;;;;;;24.20;96.20;24.30;99449.00;;;;348952;27;83344;-91
2023/06/21 00:29:02;;;;;;;;;;;24.20;96.10;24.30;99450.00;;;;346812;28;89550;-91
2023/06/21 00:29:15;;;;;;;;;;;24.20;96.10;24.30;99441.00;;;;348771;27;82573;-91
2023/06/21 00:29:27;;;;;;;;;;;24.20;96.20;24.20;99455.00;;;;345591;28;92568;-91
2023/06/21 00:29:38;;;;;;;;;;;24.20;96.20;24.20;99449.00;;;;347287;28;83350;-91
2023/06/21 00:29:50;;;;;;;;;;;24.10;96.20;24.20;99453.00;;;;344343;28;91262;-91
2023/06/21 00:30:02;;;;;;;;;;;24.20;96.20;24.20;99450.00;;;;346081;28;83475;-90
2023/06/21 00:30:14;;;;;;;;;;;24.20;96.20;24.10;99444.00;;;;346996;28;91703;-91
2023/06/21 00:30:26;;;;;;;;;;;24.20;96.30;24.10;99449.00;;;;344748;28;82585;-91
2023/06/21 00:30:38;;;;;;;;;;;24.10;96.30;24.10;99446.00;;;;346916;28;89655;-91
2023/06/21 00:30:50;;;;;;;;;;;24.10;96.30;24.10;99452.00;;;;347419;28;83413;-91
2023/06/21 00:31:03;;;;;;;;;;;24.20;96.30;24.10;99453.00;;;;348388;27;89284;-91
2023/06/21 00:31:15;;;;;;;;;;;24.10;96.20;24.10;99452.00;;;;343237;28;83527;-91
2023/06/21 00:31:27;;;;;;;;;;;24.10;96.20;24.20;99451.00;;;;345653;28;91204;-91
2023/06/21 00:31:38;;;;;;;;;;;24.10;96.20;24.20;99449.00;;;;345980;28;82590;-90
2023/06/21 00:31:50;;;;;;;;;;;24.10;96.30;24.10;99452.00;;;;345797;28;90536;-91
2023/06/21 00:32:02;;;;;;;;;;;24.10;96.30;24.20;99452.00;;;;346078;28;83378;-91
2023/06/21 00:32:14;;;;;;;;;;;24.10;96.20;24.20;99451.00;;;;345367;28;89634;-91
2023/06/21 00:32:26;;;;;;;;;;;24.20;96.20;24.20;99448.00;;;;347477;28;83389;-91
2023/06/21 00:32:41;;;;;;;;;;;24.10;96.20;24.20;99447.00;;;;345611;28;91809;-91
2023/06/21 00:32:53;;;;;;;;;;;24.10;96.30;24.20;99449.00;;;;346040;28;83440;-91
2023/06/21 00:33:05;;;;;;;;;;;24.20;96.40;24.10;99447.00;;;;345600;28;91097;-91
2023/06/21 00:33:16;;;;;;;;;;;24.10;96.30;24.20;99451.00;;;;348747;27;83796;-90
2023/06/21 00:33:28;;;;;;;;;;;24.20;96.30;24.20;99449.00;;;;345528;28;91546;-91
2023/06/21 00:33:40;;;;;;;;;;;24.20;96.30;24.20;99439.00;;;;345762;28;83481;-91
2023/06/21 00:33:52;;;;;;;;;;;24.10;96.30;24.30;99447.00;;;;348387;27;90151;-91
2023/06/21 00:34:04;;;;;;;;;;;24.20;96.40;24.30;99449.00;;;;348948;27;82409;-91
2023/06/21 00:34:15;;;;;;;;;;;24.20;96.40;24.30;99449.00;;;;348425;27;90343;-91
2023/06/21 00:34:27;;;;;;;;;;;24.20;96.40;24.30;99447.00;;;;344690;28;82474;-91
2023/06/21 00:34:39;;;;;;;;;;;24.20;96.40;24.30;99457.00;;;;345631;28;91215;-91
2023/06/21 00:34:51;;;;;;;;;;;24.20;96.40;24.30;99452.00;;;;347477;28;83314;-90
2023/06/21 00:35:03;;;;;;;;;;;24.20;96.30;24.30;99450.00;;;;346942;28;90130;-91
2023/06/21 00:35:15;;;;;;;;;;;24.20;96.30;24.30;99451.00;;;;346082;28;82601;-90
2023/06/21 00:35:27;;;;;;;;;;;24.20;96.30;24.30;99451.00;;;;344111;28;92482;-90
2023/06/21 00:35:39;;;;;;;;;;;24.20;96.30;24.30;99446.00;;;;345946;28;83408;-91
2023/06/21 00:35:51;;;;;;;;;;;24.20;96.20;24.30;99458.00;;;;345670;28;90685;-91
2023/06/21 00:36:03;;;;;;;;;;;24.20;96.20;24.20;99451.00;;;;346009;28;83334;-91
2023/06/21 00:36:15;;;;;;;;;;;24.20;96.20;24.20;99452.00;;;;344162;28;91616;-91
2023/06/21 00:36:26;;;;;;;;;;;24.20;96.20;24.20;99452.00;;;;346051;28;83404;-91
2023/06/21 00:36:41;;;;;;;;;;;24.20;96.20;24.10;99453.00;;;;345558;28;91604;-91
2023/06/21 00:36:53;;;;;;;;;;;24.20;96.20;24.20;99448.00;;;;346055;28;83277;-91
2023/06/21 00:37:05;;;;;;;;;;;24.20;96.30;24.30;99448.00;;;;348461;27;91159;-91
2023/06/21 00:37:17;;;;;;;;;;;24.20;96.20;24.20;99452.00;;;;344745;28;82468;-90
2023/06/21 00:37:29;;;;;;;;;;;24.20;96.30;24.20;99447.00;;;;345522;28;92451;-91
2023/06/21 00:37:41;;;;;;;;;;;24.20;96.30;24.20;99449.00;;;;348675;27;83582;-91
2023/06/21 00:37:55;;;;;;;;;;;24.20;96.30;24.30;99450.00;;;;342882;28;91232;-91
2023/06/21 00:38:07;;;;;;;;;;;24.20;96.30;24.20;99450.00;;;;346107;28;83345;-90
2023/06/21 00:38:20;;;;;;;;;;;24.20;96.30;24.20;99453.00;;;;348354;27;90310;-91
2023/06/21 00:38:34;;;;;;;;;;;24.20;96.30;24.20;99452.00;;;;346112;28;83395;-90
2023/06/21 00:38:47;;;;;;;;;;;24.20;96.30;24.30;99447.00;;;;345597;28;90316;-90
2023/06/21 00:38:59;;;;;;;;;;;24.20;96.40;24.30;99451.00;;;;347439;28;82512;-90
2023/06/21 00:39:11;;;;;;;;;;;24.20;96.30;24.40;99446.00;;;;344311;28;91337;-90
2023/06/21 00:39:22;;;;;;;;;;;24.20;96.40;24.40;99442.00;;;;346458;28;82636;-91
2023/06/21 00:39:35;;;;;;;;;;;24.20;96.30;24.30;99444.00;;;;345743;28;91145;-89
2023/06/21 00:39:46;;;;;;;;;;;24.20;96.30;24.30;99449.00;;;;344660;28;82525;-92
2023/06/21 00:39:58;;;;;;;;;;;24.20;96.30;24.30;99439.00;;;;347093;28;90808;-90
2023/06/21 00:40:11;;;;;;;;;;;24.20;96.20;24.30;99444.00;;;;347581;28;82811;-91
2023/06/21 00:40:25;;;;;;;;;;;24.20;96.20;24.30;99441.00;;;;347026;28;90902;-91
2023/06/21 00:40:47;;;;;;;;;;;24.20;96.20;24.30;99441.00;;;;346017;28;82540;-90
2023/06/21 00:40:59;;;;;;;;;;;24.20;96.30;24.20;99430.00;;;;344247;28;90093;-90
2023/06/21 00:41:11;;;;;;;;;;;24.20;96.30;24.20;99450.00;;;;347397;27;82532;-90
2023/06/21 00:41:23;;;;;;;;;;;24.20;96.30;24.20;99439.00;;;;344069;28;90448;-90
2023/06/21 00:41:34;;;;;;;;;;;24.20;96.20;24.30;99445.00;;;;344688;28;82464;-90
2023/06/21 00:41:47;;;;;;;;;;;24.20;96.20;24.30;99436.00;;;;349753;27;92887;-90
2023/06/21 00:41:58;;;;;;;;;;;24.20;96.20;24.30;99444.00;;;;346060;28;83391;-91
2023/06/21 00:42:13;;;;;;;;;;;24.20;96.20;24.30;99436.00;;;;347044;28;91857;-90
2023/06/21 00:42:25;;;;;;;;;;;24.20;96.30;24.40;99444.00;;;;348586;27;82590;-90
2023/06/21 00:42:37;;;;;;;;;;;24.20;96.30;24.30;99442.00;;;;345951;28;89776;-91
2023/06/21 00:42:49;;;;;;;;;;;24.20;96.30;24.40;99444.00;;;;347718;28;83430;-91
2023/06/21 00:43:01;;;;;;;;;;;24.20;96.40;24.20;99443.00;;;;349932;27;91150;-91
2023/06/21 00:43:14;;;;;;;;;;;24.20;96.40;24.30;99440.00;;;;346280;28;82582;-90
2023/06/21 00:43:25;;;;;;;;;;;24.20;96.30;24.20;99436.00;;;;347187;28;88833;-90
2023/06/21 00:43:37;;;;;;;;;;;24.20;96.30;24.20;99440.00;;;;350405;27;83501;-90
2023/06/21 00:43:49;;;;;;;;;;;24.20;96.30;24.20;99442.00;;;;345751;28;92877;-89
2023/06/21 00:44:01;;;;;;;;;;;24.20;96.30;24.10;99432.00;;;;349134;27;83265;-90
2023/06/21 00:44:13;;;;;;;;;;;24.20;96.30;24.10;99436.00;;;;347269;28;91716;-90
2023/06/21 00:44:25;;;;;;;;;;;24.20;96.40;24.20;99438.00;;;;347655;28;83545;-90
2023/06/21 00:44:37;;;;;;;;;;;24.20;96.40;24.10;99437.00;;;;347111;28;91355;-91
2023/06/21 00:44:49;;;;;;;;;;;24.20;96.50;24.10;99437.00;;;;343554;28;83422;-90
2023/06/21 00:45:01;;;;;;;;;;;24.20;96.50;24.10;99438.00;;;;344505;28;91614;-90
2023/06/21 00:45:15;;;;;;;;;;;24.20;96.40;24.20;99442.00;;;;346334;28;82479;-91
2023/06/21 00:45:27;;;;;;;;;;;24.20;96.50;24.10;99444.00;;;;345903;28;91252;-90
2023/06/21 00:45:45;;;;;;;;;;;24.20;96.60;24.00;99438.00;;;;346325;28;82488;-90
2023/06/21 00:45:57;;;;;;;;;;;24.20;96.60;23.90;99447.00;;;;346201;28;92487;-91
2023/06/21 00:46:09;;;;;;;;;;;24.20;96.70;24.00;99437.00;;;;346668;28;82486;-90
2023/06/21 00:46:21;;;;;;;;;;;24.20;96.70;23.90;99435.00;;;;349034;27;91092;-90
2023/06/21 00:46:34;;;;;;;;;;;24.10;96.60;23.90;99437.00;;;;349457;27;83365;-90
2023/06/21 00:46:46;;;;;;;;;;;24.20;96.70;24.00;99445.00;;;;346469;28;88144;-90
2023/06/21 00:46:57;;;;;;;;;;;24.10;96.70;24.00;99438.00;;;;347815;28;83494;-90
2023/06/21 00:47:09;;;;;;;;;;;24.10;96.60;24.00;99440.00;;;;346360;28;91295;-91
2023/06/21 00:47:22;;;;;;;;;;;24.20;96.70;23.90;99439.00;;;;348115;28;83374;-90
2023/06/21 00:47:34;;;;;;;;;;;24.10;96.60;23.80;99440.00;;;;349136;27;90786;-90
2023/06/21 00:47:46;;;;;;;;;;;24.10;96.80;23.80;99441.00;;;;348034;28;83483;-90
2023/06/21 00:47:58;;;;;;;;;;;24.10;96.80;23.80;99435.00;;;;346225;28;91378;-90
2023/06/21 00:48:10;;;;;;;;;;;24.10;96.70;23.90;99441.00;;;;345320;28;82494;-90
2023/06/21 00:48:22;;;;;;;;;;;24.10;96.70;24.00;99440.00;;;;347665;27;90593;-90
2023/06/21 00:48:34;;;;;;;;;;;24.10;96.70;24.00;99430.00;;;;346592;28;83369;-90
2023/06/21 00:48:45;;;;;;;;;;;24.10;96.70;23.90;99441.00;;;;346184;28;89053;-90
2023/06/21 00:48:58;;;;;;;;;;;24.10;96.80;23.80;99433.00;;;;347764;28;83304;-90
2023/06/21 00:49:10;;;;;;;;;;;24.10;96.80;23.80;99434.00;;;;344586;28;90522;-91
2023/06/21 00:49:23;;;;;;;;;;;24.10;96.90;23.80;99436.00;;;;347611;28;83298;-90
2023/06/21 00:49:35;;;;;;;;;;;24.00;96.90;23.80;99440.00;;;;347157;28;91970;-90
2023/06/21 00:49:47;;;;;;;;;;;24.00;96.90;23.80;99432.00;;;;346318;28;83453;-90
2023/06/21 00:49:59;;;;;;;;;;;24.00;96.90;23.90;99433.00;;;;345833;28;92521;-90
2023/06/21 00:50:12;;;;;;;;;;;24.00;96.90;23.80;99428.00;;;;347778;28;83364;-90
2023/06/21 00:50:25;;;;;;;;;;;24.00;96.90;23.70;99439.00;;;;348606;27;91075;-90
2023/06/21 00:50:40;;;;;;;;;;;24.00;96.90;23.70;99433.00;;;;346374;28;82385;-90
2023/06/21 00:50:52;;;;;;;;;;;24.00;96.90;23.70;99438.00;;;;345851;28;91452;-90
2023/06/21 00:51:04;;;;;;;;;;;24.00;96.90;23.70;99428.00;;;;346302;28;83463;-90
2023/06/21 00:51:16;;;;;;;;;;;24.00;96.90;23.70;99430.00;;;;347106;28;89683;-91
2023/06/21 00:51:27;;;;;;;;;;;24.00;96.90;23.70;99431.00;;;;346380;28;83449;-90
2023/06/21 00:51:40;;;;;;;;;;;24.00;96.90;23.70;99440.00;;;;346630;28;90786;-91
2023/06/21 00:51:58;;;;;;;;;;;23.90;96.90;23.70;99430.00;;;;346287;28;82514;-89
2023/06/21 00:52:10;;;;;;;;;;;24.00;96.90;23.70;99434.00;;;;344448;28;92659;-90
2023/06/21 00:52:21;;;;;;;;;;;23.90;96.90;23.70;99440.00;;;;346215;28;83217;-90
2023/06/21 00:52:33;;;;;;;;;;;23.90;97.00;23.80;99436.00;;;;345908;28;90080;-90
2023/06/21 00:52:46;;;;;;;;;;;23.90;96.90;23.70;99434.00;;;;347687;28;83414;-90
2023/06/21 00:52:58;;;;;;;;;;;23.90;96.90;23.70;99440.00;;;;347218;28;90123;-90
2023/06/21 00:53:10;;;;;;;;;;;23.90;96.90;23.60;99432.00;;;;344939;28;83391;-90
2023/06/21 00:53:23;;;;;;;;;;;23.90;96.90;23.70;99435.00;;;;348668;27;91491;-90
2023/06/21 00:53:35;;;;;;;;;;;23.90;97.00;23.80;99435.00;;;;346198;28;83560;-90
2023/06/21 00:53:47;;;;;;;;;;;23.90;96.90;23.90;99444.00;;;;344511;28;89930;-90
2023/06/21 00:53:59;;;;;;;;;;;23.90;96.90;23.80;99436.00;;;;348959;27;83522;-90
2023/06/21 00:54:16;;;;;;;;;;;23.90;97.00;23.70;99433.00;;;;347259;28;92234;-90
2023/06/21 00:54:31;;;;;;;;;;;23.90;97.00;23.60;99436.00;;;;346302;28;83401;-91
2023/06/21 00:54:43;;;;;;;;;;;23.90;97.10;23.70;99433.00;;;;345860;28;91384;-90
2023/06/21 00:54:54;;;;;;;;;;;23.90;97.10;23.70;99441.00;;;;346203;28;83426;-90
2023/06/21 00:55:08;;;;;;;;;;;23.90;97.10;23.70;99440.00;;;;347355;28;91659;-90
2023/06/21 00:55:21;;;;;;;;;;;23.90;97.20;23.60;99434.00;;;;346269;28;82611;-90
2023/06/21 00:55:33;;;;;;;;;;;23.90;97.10;23.70;99437.00;;;;345750;28;92155;-90
2023/06/21 00:55:45;;;;;;;;;;;23.90;97.40;23.80;99434.00;;;;346256;28;83522;-90
2023/06/21 00:55:57;;;;;;;;;;;23.90;97.10;23.70;99443.00;;;;345816;28;90738;-90
2023/06/21 00:56:09;;;;;;;;;;;23.90;97.10;23.60;99436.00;;;;346278;28;83373;-90
2023/06/21 00:56:21;;;;;;;;;;;23.80;97.10;23.60;99438.00;;;;347133;28;92239;-90
2023/06/21 00:56:33;;;;;;;;;;;23.80;97.00;23.70;99438.00;;;;347655;28;83444;-90
2023/06/21 00:56:45;;;;;;;;;;;23.80;97.00;23.80;99441.00;;;;347245;28;91723;-90
2023/06/21 00:56:57;;;;;;;;;;;23.80;97.00;23.70;99445.00;;;;350319;27;82495;-90
2023/06/21 00:57:12;;;;;;;;;;;23.80;97.10;23.70;99437.00;;;;344530;28;91259;-90
2023/06/21 00:57:24;;;;;;;;;;;23.80;97.10;23.60;99438.00;;;;346264;28;83405;-90
2023/06/21 00:57:36;;;;;;;;;;;23.80;97.10;23.60;99440.00;;;;347188;28;90486;-90
2023/06/21 00:57:48;;;;;;;;;;;23.80;97.10;23.70;99438.00;;;;346247;28;83480;-90
2023/06/21 00:58:00;;;;;;;;;;;23.80;97.10;23.70;99434.00;;;;345775;28;91435;-90
2023/06/21 00:58:11;;;;;;;;;;;23.80;97.10;23.60;99431.00;;;;347638;28;82490;-90
2023/06/21 00:58:23;;;;;;;;;;;23.80;97.10;23.60;99433.00;;;;348486;27;92965;-90
2023/06/21 00:58:35;;;;;;;;;;;23.80;97.10;23.60;99437.00;;;;346116;28;83504;-90
2023/06/21 00:58:47;;;;;;;;;;;23.80;97.10;23.60;99435.00;;;;347268;28;90732;-90
2023/06/21 00:58:59;;;;;;;;;;;23.80;97.20;23.70;99434.00;;;;346239;28;83521;-90
2023/06/21 00:59:12;;;;;;;;;;;23.70;97.10;23.70;99430.00;;;;345970;28;87735;-90
2023/06/21 00:59:27;;;;;;;;;;;23.80;97.10;23.80;99438.00;;;;349129;27;83402;-90
2023/06/21 00:59:41;;;;;;;;;;;23.80;97.00;23.70;99433.00;;;;345763;28;90639;-91
2023/06/21 00:59:53;;;;;;;;;;;23.80;97.00;23.70;99431.00;;;;347641;28;83372;-90
2023/06/21 01:00:05;;;;;;;;;;;23.80;97.10;23.70;99446.00;;;;345807;28;90608;-91
2023/06/21 01:00:20;;;;;;;;;;;23.80;97.10;23.70;99433.00;;;;346162;28;83426;-90
2023/06/21 01:00:32;;;;;;;;;;;23.80;97.10;23.60;99439.00;;;;344328;28;92682;-91
2023/06/21 01:00:44;;;;;;;;;;;23.80;97.20;23.60;99439.00;;;;346273;28;83380;-90
2023/06/21 01:00:56;;;;;;;;;;;23.80;97.20;23.50;99440.00;;;;345837;28;90242;-91
2023/06/21 01:01:08;;;;;;;;;;;23.70;97.20;23.60;99437.00;;;;346309;28;83377;-90
2023/06/21 01:01:20;;;;;;;;;;;23.80;97.20;23.60;99440.00;;;;347262;28;89912;-90